Dexter, Michigan
Current Conditions -  °F | °C
As of 1:53 AM on Thursday 27 Nov 2014 (Local Time) from KARB Reporting Station
Few Clouds Few Clouds  
Wind Chill: 21°   Ceiling: Unl
Heat Index: 28°   Visibility: 10mi
Dew Point: 22°   Wind: 7mph
Humidity: 78%   Direction: 340°NNW
Pressure: 30.08"   Gusts: NA
Location:  42.34°N, 83.89°W
Report Text: KARB 270653Z AUTO 34006KT 10SM FEW046 M02/M06 A3008 RMK AO2 SLP197 T10221056
Loading
Personal Weather Stations






























Interactive Weather Map New forecast layout! Learn more

10-Day Weather Forecast

Advertisements
Track Severe Weather on mobile